createdAt,value
2022-09-12T00:01:17.215Z,4.80
2022-09-12T00:03:44.681Z,8.00
2022-09-12T00:06:25.497Z,5.47
2022-09-12T00:08:55.475Z,5.65
2022-09-12T00:11:22.947Z,6.45
2022-09-12T00:13:50.354Z,5.18
2022-09-12T00:16:21.099Z,5.30
2022-09-12T00:18:48.956Z,4.85
2022-09-12T00:21:18.208Z,5.38
2022-09-12T00:23:46.237Z,6.22
2022-09-12T00:26:14.488Z,5.15
2022-09-12T00:28:42.324Z,6.38
2022-09-12T00:31:24.197Z,4.95
2022-09-12T00:33:53.280Z,5.15
2022-09-12T00:36:23.137Z,4.93
2022-09-12T00:38:51.535Z,4.43
2022-09-12T00:41:22.101Z,4.93
2022-09-12T00:43:53.126Z,5.97
2022-09-12T00:46:23.134Z,4.57
2022-09-12T00:49:14.980Z,6.00
2022-09-12T00:51:49.635Z,5.93
2022-09-12T00:54:22.434Z,7.28
2022-09-12T00:56:52.456Z,5.50
2022-09-12T00:59:27.812Z,6.40
2022-09-12T01:01:56.612Z,6.07
2022-09-12T01:04:28.561Z,6.00
2022-09-12T01:06:58.401Z,6.35
2022-09-12T01:09:26.620Z,4.85
2022-09-12T01:11:55.223Z,5.63
2022-09-12T01:14:22.762Z,5.60
2022-09-12T01:16:51.550Z,4.90
2022-09-12T01:19:32.112Z,4.07
2022-09-12T01:22:02.248Z,4.20
2022-09-12T01:24:51.912Z,3.70
2022-09-12T01:27:27.198Z,4.30
2022-09-12T01:30:17.899Z,4.00
2022-09-12T01:33:14.717Z,4.30
2022-09-12T01:36:20.869Z,4.63
2022-09-12T01:38:54.411Z,4.72
2022-09-12T01:41:33.829Z,4.03
2022-09-12T01:44:04.379Z,5.55
2022-09-12T01:46:37.386Z,6.15
2022-09-12T01:49:25.924Z,5.07
2022-09-12T01:52:23.418Z,12.35
2022-09-12T01:54:59.971Z,5.78
2022-09-12T01:57:56.694Z,5.10
2022-09-12T02:00:24.625Z,5.82
2022-09-12T02:03:11.892Z,4.28
2022-09-12T02:05:56.794Z,5.57
2022-09-12T02:08:41.685Z,6.53
2022-09-12T02:11:12.113Z,4.40
2022-09-12T02:13:48.223Z,4.85
2022-09-12T02:16:37.740Z,3.45
2022-09-12T02:19:24.535Z,4.18
2022-09-12T02:21:58.780Z,5.13
2022-09-12T02:24:32.061Z,3.42
2022-09-12T02:27:27.086Z,3.63
2022-09-12T02:29:54.740Z,3.47
2022-09-12T02:32:35.865Z,3.53
2022-09-12T02:35:35.830Z,4.53
2022-09-12T02:38:17.089Z,3.78
2022-09-12T02:40:44.720Z,3.72
2022-09-12T02:43:12.120Z,4.97
2022-09-12T02:45:39.696Z,6.72
2022-09-12T02:48:13.429Z,4.93
2022-09-12T02:50:42.334Z,6.22
2022-09-12T02:53:10.876Z,5.53
2022-09-12T02:55:40.472Z,5.68
2022-09-12T02:58:13.661Z,7.47
2022-09-12T03:00:51.458Z,6.90
2022-09-12T03:03:46.806Z,5.43
2022-09-12T03:06:51.199Z,8.80
2022-09-12T03:09:24.680Z,6.78
2022-09-12T03:12:07.199Z,8.32
2022-09-12T03:14:53.010Z,7.57
2022-09-12T03:17:35.609Z,5.68
2022-09-12T03:20:11.032Z,8.07
2022-09-12T03:22:54.027Z,6.80
2022-09-12T03:25:26.424Z,6.93
2022-09-12T03:28:20.757Z,6.90
2022-09-12T03:30:51.626Z,8.05
2022-09-12T03:33:21.891Z,6.20
2022-09-12T03:35:52.019Z,9.25
2022-09-12T03:38:20.264Z,11.13
2022-09-12T03:40:51.378Z,9.48
2022-09-12T03:43:22.076Z,7.93
2022-09-12T03:45:53.682Z,9.27
2022-09-12T03:48:21.527Z,9.05
2022-09-12T03:50:49.062Z,10.18
2022-09-12T03:53:17.361Z,12.60
2022-09-12T03:55:45.217Z,14.60
2022-09-12T03:58:12.867Z,10.25
2022-09-12T04:00:41.302Z,9.68
2022-09-12T04:03:09.450Z,12.77
2022-09-12T04:05:37.144Z,11.13
2022-09-12T04:08:04.796Z,10.30
2022-09-12T04:10:32.779Z,12.25
2022-09-12T04:13:00.146Z,11.40
2022-09-12T04:15:27.680Z,9.32
2022-09-12T04:17:55.395Z,10.07
2022-09-12T04:20:22.948Z,9.60
2022-09-12T04:22:50.364Z,11.65
2022-09-12T04:25:17.878Z,10.88
2022-09-12T04:27:45.335Z,11.25
2022-09-12T04:30:13.238Z,13.07
2022-09-12T04:32:41.673Z,10.82
2022-09-12T04:35:09.232Z,13.45
2022-09-12T04:37:36.655Z,11.35
2022-09-12T04:40:04.550Z,14.27
2022-09-12T04:42:32.293Z,10.77
2022-09-12T04:44:59.843Z,13.98
2022-09-12T04:47:27.396Z,10.73
2022-09-12T04:49:55.838Z,9.48
2022-09-12T04:52:23.248Z,10.10
2022-09-12T04:54:50.875Z,9.38
2022-09-12T04:57:18.332Z,7.72
2022-09-12T04:59:45.699Z,8.50
2022-09-12T05:02:13.324Z,10.20
2022-09-12T05:04:40.956Z,11.05
2022-09-12T05:07:08.465Z,9.57
2022-09-12T05:09:35.826Z,13.32
2022-09-12T05:12:05.540Z,12.00
2022-09-12T05:14:34.503Z,11.38
2022-09-12T05:17:02.866Z,9.18
2022-09-12T05:19:31.603Z,10.25
2022-09-12T05:21:59.403Z,8.88
2022-09-12T05:24:26.935Z,9.27
2022-09-12T05:26:54.450Z,10.27
2022-09-12T05:29:21.871Z,11.30
2022-09-12T05:31:52.460Z,11.82
2022-09-12T05:34:21.202Z,9.80
2022-09-12T05:36:48.846Z,13.00
2022-09-12T05:39:16.374Z,11.30
2022-09-12T05:41:43.708Z,11.77
2022-09-12T05:44:12.890Z,12.00
2022-09-12T05:46:44.485Z,10.75
2022-09-12T05:49:13.862Z,8.90
2022-09-12T05:51:44.007Z,10.30
2022-09-12T05:54:13.646Z,9.23
2022-09-12T05:56:43.477Z,10.45
2022-09-12T05:59:19.693Z,11.35
2022-09-12T06:01:48.094Z,11.25
2022-09-12T06:04:16.097Z,9.15
2022-09-12T06:06:45.420Z,11.48
2022-09-12T06:09:15.429Z,12.52
2022-09-12T06:11:43.944Z,15.23
2022-09-12T06:14:13.871Z,13.65
2022-09-12T06:16:41.545Z,19.23
2022-09-12T06:19:16.320Z,15.13
2022-09-12T06:21:44.427Z,14.02
2022-09-12T06:24:12.196Z,13.35
2022-09-12T06:26:39.675Z,13.52
2022-09-12T06:29:08.006Z,13.63
2022-09-12T06:31:38.189Z,12.32
2022-09-12T06:34:08.513Z,15.00
2022-09-12T06:36:41.830Z,12.43
2022-09-12T06:39:12.681Z,11.90
2022-09-12T06:41:43.666Z,11.27
2022-09-12T06:44:20.726Z,10.07
2022-09-12T06:46:48.553Z,10.77
2022-09-12T06:49:16.161Z,11.55
2022-09-12T06:51:43.654Z,11.98
2022-09-12T06:54:15.841Z,12.43
2022-09-12T06:56:45.054Z,5.95
2022-09-12T06:59:12.646Z,9.43
2022-09-12T07:01:42.258Z,6.13
2022-09-12T07:04:10.397Z,7.13
2022-09-12T07:06:40.920Z,6.70
2022-09-12T07:09:11.983Z,8.60
2022-09-12T07:11:41.936Z,9.77
2022-09-12T07:14:12.326Z,12.63
2022-09-12T07:16:40.491Z,7.78
2022-09-12T07:19:08.588Z,7.25
2022-09-12T07:21:40.465Z,6.13
2022-09-12T07:24:10.553Z,5.70
2022-09-12T07:26:40.242Z,8.15
2022-09-12T07:34:29.435Z,5.00
2022-09-12T07:36:56.840Z,4.93
2022-09-12T07:39:24.391Z,4.65
2022-09-12T07:41:51.805Z,6.95
2022-09-12T07:44:19.211Z,5.95
2022-09-12T07:46:46.694Z,3.88
2022-09-12T07:49:14.128Z,5.25
2022-09-12T07:51:41.607Z,6.20
2022-09-12T07:54:09.844Z,4.80
2022-09-12T07:56:39.433Z,3.83
2022-09-12T07:59:08.385Z,3.35
2022-09-12T08:01:36.178Z,2.58
2022-09-12T08:04:05.409Z,5.13
2022-09-12T08:06:36.133Z,2.70
2022-09-12T08:09:05.380Z,2.65
2022-09-12T08:11:32.768Z,2.08
2022-09-12T08:14:02.024Z,3.30
2022-09-12T08:16:31.569Z,4.63
2022-09-12T08:19:01.038Z,3.83
2022-09-12T08:21:31.340Z,4.20
2022-09-12T08:24:01.321Z,2.80
2022-09-12T08:26:29.589Z,3.13
2022-09-12T08:28:57.023Z,4.32
2022-09-12T08:31:26.261Z,4.57
2022-09-12T08:33:57.043Z,6.00
2022-09-12T08:36:27.650Z,5.28
2022-09-12T08:38:59.880Z,5.97
2022-09-12T08:41:41.414Z,36.35
2022-09-12T08:44:20.934Z,5.15
2022-09-12T08:47:15.460Z,4.45
2022-09-12T08:49:57.780Z,4.88
2022-09-12T08:52:50.210Z,5.10
2022-09-12T08:55:27.905Z,4.35
2022-09-12T08:57:56.078Z,5.32
2022-09-12T09:00:23.968Z,5.82
2022-09-12T09:03:29.903Z,3.45
2022-09-12T09:06:34.324Z,5.53
2022-09-12T09:09:24.621Z,4.57
2022-09-12T09:12:13.494Z,3.50
2022-09-12T09:15:21.723Z,6.18
2022-09-12T09:17:54.906Z,3.60
2022-09-12T09:20:37.660Z,3.83
2022-09-12T09:23:31.704Z,4.97
2022-09-12T09:26:08.039Z,4.45
2022-09-12T09:28:53.409Z,4.97
2022-09-12T09:31:24.185Z,4.15
2022-09-12T09:33:56.672Z,4.28
2022-09-12T09:36:35.869Z,4.47
2022-09-12T09:39:09.436Z,3.65
2022-09-12T09:42:00.045Z,6.32
2022-09-12T09:44:30.479Z,3.38
2022-09-12T09:47:00.131Z,3.67
2022-09-12T09:49:31.562Z,4.78
2022-09-12T09:52:01.318Z,3.95
2022-09-12T09:54:53.527Z,3.95
2022-09-12T09:57:36.402Z,3.42
2022-09-12T10:00:37.106Z,3.55
2022-09-12T10:03:25.477Z,4.40
2022-09-12T10:05:55.435Z,5.60
2022-09-12T10:08:32.286Z,4.43
2022-09-12T10:11:08.117Z,3.00
2022-09-12T10:13:42.166Z,5.55
2022-09-12T10:16:20.989Z,6.70
2022-09-12T10:18:51.337Z,4.00
2022-09-12T10:21:36.093Z,5.40
2022-09-12T10:24:19.156Z,3.88
2022-09-12T10:29:28.508Z,6.35
2022-09-12T10:31:59.079Z,8.68
2022-09-12T10:34:43.798Z,6.03
2022-09-12T10:37:42.188Z,5.88
2022-09-12T10:40:24.678Z,4.30
2022-09-12T10:42:56.922Z,5.72
2022-09-12T10:45:31.008Z,5.03
2022-09-12T10:48:06.772Z,7.18
2022-09-12T10:50:43.333Z,7.00
2022-09-12T10:53:22.936Z,5.60
2022-09-12T10:56:03.344Z,5.57
2022-09-12T10:59:07.393Z,6.20
2022-09-12T11:01:40.690Z,8.15
2022-09-12T11:04:29.467Z,7.38
2022-09-12T11:07:18.710Z,9.13
2022-09-12T11:10:01.546Z,6.82
2022-09-12T11:13:00.221Z,6.53
2022-09-12T11:15:33.052Z,7.38
2022-09-12T11:18:24.657Z,8.60
2022-09-12T11:21:10.131Z,8.15
2022-09-12T11:23:53.738Z,8.63
2022-09-12T11:26:49.388Z,8.25
2022-09-12T11:29:24.985Z,7.15
2022-09-12T11:32:18.744Z,7.28
2022-09-12T11:35:04.897Z,6.72
2022-09-12T11:37:32.335Z,7.63
2022-09-12T11:40:23.223Z,7.50
2022-09-12T11:42:55.845Z,7.90
2022-09-12T11:45:31.394Z,6.70
2022-09-12T11:48:04.678Z,6.43
2022-09-12T11:50:32.680Z,7.72
2022-09-12T11:53:15.457Z,7.70
2022-09-12T11:55:59.570Z,6.50
2022-09-12T11:58:29.558Z,9.65
2022-09-12T12:01:08.019Z,7.82
2022-09-12T12:03:43.846Z,7.03
2022-09-12T12:06:21.556Z,8.50
2022-09-12T12:08:50.901Z,8.23
2022-09-12T12:11:38.799Z,7.07
2022-09-12T12:14:32.671Z,4.20
2022-09-12T12:17:00.460Z,5.75
2022-09-12T12:19:37.064Z,6.47
2022-09-12T12:22:17.475Z,10.15
2022-09-12T12:25:21.398Z,6.88
2022-09-12T12:27:59.343Z,7.05
2022-09-12T12:30:29.796Z,5.53
2022-09-12T12:33:01.696Z,5.70
2022-09-12T12:36:00.101Z,3.67
2022-09-12T12:38:36.751Z,8.98
2022-09-12T12:41:19.183Z,15.73
2022-09-12T12:43:53.948Z,9.65
2022-09-12T12:46:27.311Z,4.32
2022-09-12T12:49:02.480Z,6.28
2022-09-12T12:51:50.034Z,4.63
2022-09-12T12:54:41.507Z,6.10
2022-09-12T12:57:45.819Z,5.25
2022-09-12T13:00:25.582Z,6.10
2022-09-12T13:02:59.988Z,3.28
2022-09-12T13:05:30.722Z,4.32
2022-09-12T13:08:12.146Z,7.40
2022-09-12T13:10:48.865Z,5.63
2022-09-12T13:13:26.048Z,3.13
2022-09-12T13:15:54.397Z,4.53
2022-09-12T13:18:29.794Z,5.47
2022-09-12T13:21:12.174Z,3.40
2022-09-12T13:23:40.017Z,3.63
2022-09-12T13:26:25.873Z,5.13
2022-09-12T13:29:23.355Z,3.38
2022-09-12T13:31:59.522Z,4.63
2022-09-12T13:34:47.879Z,4.53
2022-09-12T13:37:24.554Z,3.95
2022-09-12T13:40:13.566Z,5.97
2022-09-12T13:43:08.634Z,4.57
2022-09-12T13:45:39.709Z,5.55
2022-09-12T13:48:13.769Z,6.40
2022-09-12T13:50:51.297Z,4.18
2022-09-12T13:53:22.709Z,4.40
2022-09-12T13:55:58.288Z,4.55
2022-09-12T13:58:28.463Z,6.80
2022-09-12T14:01:12.695Z,7.40
2022-09-12T14:04:15.559Z,5.75
2022-09-12T14:06:51.107Z,19.08
2022-09-12T14:09:39.309Z,7.45
2022-09-12T14:12:20.838Z,7.25
2022-09-12T14:14:50.713Z,8.00
2022-09-12T14:17:24.374Z,6.45
2022-09-12T14:22:20.601Z,7.05
2022-09-12T14:24:50.831Z,7.18
2022-09-12T14:27:25.967Z,7.03
2022-09-12T14:30:07.767Z,9.60
2022-09-12T14:32:38.545Z,6.82
2022-09-12T14:35:17.853Z,6.03
2022-09-12T14:37:51.227Z,7.43
2022-09-12T14:40:21.491Z,7.10
2022-09-12T14:42:51.206Z,5.97
2022-09-12T14:45:30.319Z,6.25
2022-09-12T14:47:59.277Z,7.95
2022-09-12T14:50:29.929Z,11.80
2022-09-12T14:53:17.195Z,7.93
2022-09-12T14:56:12.706Z,7.93
2022-09-12T14:58:41.748Z,9.45
2022-09-12T15:01:09.226Z,7.53
2022-09-12T15:03:57.524Z,6.25
2022-09-12T15:06:31.139Z,8.18
2022-09-12T15:09:02.975Z,7.60
2022-09-12T15:11:30.641Z,7.00
2022-09-12T15:13:58.049Z,9.05
2022-09-12T15:16:25.648Z,5.75
2022-09-12T15:18:53.137Z,7.50
2022-09-12T15:21:21.567Z,10.60
2022-09-12T15:23:52.633Z,7.43
2022-09-12T15:26:22.778Z,9.40
2022-09-12T15:28:51.239Z,7.78
2022-09-12T15:31:27.604Z,10.20
2022-09-12T15:33:56.516Z,11.60
2022-09-12T15:36:25.217Z,8.15
2022-09-12T15:38:53.759Z,8.48
2022-09-12T15:41:24.380Z,10.23
2022-09-12T15:43:51.874Z,9.93
2022-09-12T15:46:19.914Z,14.20
2022-09-12T15:48:47.531Z,15.10
2022-09-12T15:51:17.776Z,18.58
2022-09-12T15:53:46.190Z,15.88
2022-09-12T15:56:18.883Z,14.45
2022-09-12T15:58:58.354Z,14.93
2022-09-12T16:01:28.285Z,10.85
2022-09-12T16:03:56.612Z,14.88
2022-09-12T16:06:24.240Z,17.63
2022-09-12T16:08:51.870Z,13.70
2022-09-12T16:11:23.458Z,14.82
2022-09-12T16:13:53.250Z,14.38
2022-09-12T16:16:21.220Z,12.40
2022-09-12T16:18:49.272Z,12.38
2022-09-12T16:21:16.784Z,11.38
2022-09-12T16:23:45.121Z,14.27
2022-09-12T16:26:12.752Z,9.93
2022-09-12T16:28:40.958Z,12.90
2022-09-12T16:31:11.708Z,11.23
2022-09-12T16:33:40.130Z,13.23
2022-09-12T16:36:10.861Z,10.95
2022-09-12T16:38:43.118Z,15.38
2022-09-12T16:41:11.853Z,10.77
2022-09-12T16:43:40.682Z,17.23
2022-09-12T16:46:11.897Z,14.13
2022-09-12T16:48:52.795Z,13.85
2022-09-12T16:51:24.074Z,13.10
2022-09-12T16:53:54.281Z,13.38
2022-09-12T16:56:21.955Z,16.05
2022-09-12T16:58:49.744Z,11.63
2022-09-12T17:01:20.483Z,15.80
2022-09-12T17:03:49.005Z,11.23
2022-09-12T17:06:18.698Z,13.10
2022-09-12T17:08:49.918Z,12.18
2022-09-12T17:11:19.449Z,11.70
2022-09-12T17:14:03.917Z,10.68
2022-09-12T17:16:36.929Z,12.00
2022-09-12T17:19:05.819Z,9.82
2022-09-12T17:21:34.028Z,13.07
2022-09-12T17:24:01.887Z,14.30
2022-09-12T17:26:29.520Z,10.85
2022-09-12T17:28:57.124Z,10.35
2022-09-12T17:31:24.866Z,11.95
2022-09-12T17:33:57.520Z,13.10
2022-09-12T17:36:25.890Z,14.10
2022-09-12T17:38:54.485Z,14.30
2022-09-12T17:41:24.449Z,16.00
2022-09-12T17:43:57.603Z,16.23
2022-09-12T17:46:32.000Z,15.38
2022-09-12T17:49:01.270Z,13.90
2022-09-12T17:51:30.995Z,14.55
2022-09-12T17:54:08.596Z,16.38
2022-09-12T17:56:37.839Z,13.73
2022-09-12T17:59:07.484Z,12.60
2022-09-12T18:01:53.845Z,12.80
2022-09-12T18:04:21.463Z,14.90
2022-09-12T18:06:49.502Z,26.00
2022-09-12T18:09:22.948Z,24.83
2022-09-12T18:11:50.649Z,19.80
2022-09-12T18:14:19.461Z,18.65
2022-09-12T18:16:47.811Z,19.05
2022-09-12T18:19:16.196Z,19.13
2022-09-12T18:21:44.227Z,19.30
2022-09-12T18:24:12.167Z,16.20
2022-09-12T18:26:39.930Z,15.90
2022-09-12T18:29:08.099Z,16.10
2022-09-12T18:31:36.220Z,16.63
2022-09-12T18:34:06.223Z,15.40
2022-09-12T18:36:33.690Z,20.20
2022-09-12T18:39:01.136Z,20.85
2022-09-12T18:41:29.237Z,21.35
2022-09-12T18:43:58.897Z,21.73
2022-09-12T18:46:27.766Z,22.48
2022-09-12T18:48:57.965Z,21.90
2022-09-12T18:51:31.767Z,24.50
2022-09-12T18:54:01.913Z,25.80
2022-09-12T18:56:33.263Z,22.15
2022-09-12T18:59:03.105Z,21.88
2022-09-12T19:01:33.176Z,24.25
2022-09-12T19:04:04.915Z,24.48
2022-09-12T19:06:36.520Z,24.42
2022-09-12T19:09:07.836Z,25.48
2022-09-12T19:11:38.145Z,23.20
2022-09-12T19:14:07.747Z,23.08
2022-09-12T19:16:36.126Z,28.48
2022-09-12T19:19:03.956Z,23.58
2022-09-12T19:21:33.206Z,24.27
2022-09-12T19:24:03.771Z,24.83
2022-09-12T19:26:31.243Z,24.70
2022-09-12T19:28:59.084Z,22.50
2022-09-12T19:31:26.750Z,22.40
2022-09-12T19:33:58.840Z,25.02
2022-09-12T19:36:45.268Z,24.98
2022-09-12T19:39:14.723Z,20.10
2022-09-12T19:41:42.801Z,19.13
2022-09-12T19:44:10.310Z,18.75
2022-09-12T19:46:37.956Z,15.73
2022-09-12T19:49:05.506Z,17.40
2022-09-12T19:51:32.923Z,17.48
2022-09-12T19:54:00.430Z,19.58
2022-09-12T19:56:27.844Z,17.50
2022-09-12T19:58:56.876Z,16.40
2022-09-12T20:01:28.799Z,18.60
2022-09-12T20:03:57.833Z,17.23
2022-09-12T20:06:26.296Z,17.17
2022-09-12T20:08:54.559Z,14.20
2022-09-12T20:11:23.949Z,14.32
2022-09-12T20:13:52.105Z,16.23
2022-09-12T20:16:23.086Z,16.50
2022-09-12T20:18:59.169Z,14.13
2022-09-12T20:21:32.097Z,11.68
2022-09-12T20:24:08.298Z,14.85
2022-09-12T20:26:36.397Z,12.70
2022-09-12T20:29:05.570Z,12.50
2022-09-12T20:31:33.878Z,12.50
2022-09-12T20:34:01.384Z,14.38
2022-09-12T20:36:29.134Z,15.07
2022-09-12T20:38:59.080Z,11.60
2022-09-12T20:41:28.747Z,12.15
2022-09-12T20:43:57.350Z,12.93
2022-09-12T20:46:27.003Z,11.35
2022-09-12T20:48:55.370Z,10.32
2022-09-12T20:51:24.873Z,12.07
2022-09-12T20:53:56.519Z,10.00
2022-09-12T20:56:26.873Z,10.85
2022-09-12T20:58:57.815Z,8.73
2022-09-12T21:01:27.320Z,12.35
2022-09-12T21:03:54.952Z,8.90
2022-09-12T21:06:22.632Z,11.05
2022-09-12T21:08:50.958Z,13.50
2022-09-12T21:11:20.465Z,13.25
2022-09-12T21:13:48.046Z,13.95
2022-09-12T21:16:18.231Z,18.75
2022-09-12T21:18:46.451Z,14.25
2022-09-12T21:21:16.098Z,14.27
2022-09-12T21:23:43.592Z,13.05
2022-09-12T21:26:11.255Z,13.80
2022-09-12T21:28:39.004Z,15.50
2022-09-12T21:31:06.595Z,12.20
2022-09-12T21:33:34.113Z,10.07
2022-09-12T21:36:03.848Z,11.38
2022-09-12T21:38:32.149Z,12.77
2022-09-12T21:41:08.138Z,14.02
2022-09-12T21:43:36.640Z,14.65
2022-09-12T21:46:05.724Z,12.05
2022-09-12T21:48:33.783Z,14.20
2022-09-12T21:51:01.505Z,13.38
2022-09-12T21:53:29.282Z,14.82
2022-09-12T21:56:01.624Z,14.18
2022-09-12T21:58:29.118Z,15.40
2022-09-12T22:00:56.746Z,12.30
2022-09-12T22:03:24.538Z,12.40
2022-09-12T22:05:59.504Z,12.95
2022-09-12T22:08:26.993Z,17.85
2022-09-12T22:10:58.902Z,14.35
2022-09-12T22:13:26.691Z,15.18
2022-09-12T22:15:54.189Z,13.50
2022-09-12T22:18:21.781Z,15.95
2022-09-12T22:20:49.139Z,12.85
2022-09-12T22:23:35.077Z,13.90
2022-09-12T22:26:03.392Z,13.15
2022-09-12T22:28:32.377Z,14.18
2022-09-12T22:31:00.004Z,11.15
2022-09-12T22:33:28.447Z,10.55
2022-09-12T22:35:55.852Z,12.60
2022-09-12T22:38:23.296Z,12.80
2022-09-12T22:40:50.735Z,12.15
2022-09-12T22:43:18.182Z,11.63
2022-09-12T22:45:45.582Z,11.38
2022-09-12T22:48:13.025Z,14.02
2022-09-12T22:50:40.572Z,14.77
2022-09-12T22:53:09.174Z,14.05
2022-09-12T22:55:36.662Z,11.35
2022-09-12T22:58:04.102Z,13.80
2022-09-12T23:00:31.680Z,13.77
2022-09-12T23:02:59.241Z,11.30
2022-09-12T23:05:26.691Z,13.77
2022-09-12T23:07:54.703Z,12.93
2022-09-12T23:10:22.677Z,11.00
2022-09-12T23:12:50.471Z,13.10
2022-09-12T23:15:17.795Z,12.30
2022-09-12T23:17:45.218Z,13.05
2022-09-12T23:20:13.066Z,9.50
2022-09-12T23:22:40.490Z,11.65
2022-09-12T23:25:08.541Z,11.18
2022-09-12T23:27:36.104Z,11.38
2022-09-12T23:30:03.686Z,10.98
2022-09-12T23:32:31.890Z,9.35
2022-09-12T23:34:59.362Z,12.55
2022-09-12T23:37:27.203Z,10.20
2022-09-12T23:39:54.551Z,11.43
2022-09-12T23:42:22.082Z,8.90
2022-09-12T23:44:49.526Z,9.00
2022-09-12T23:47:18.770Z,11.98
2022-09-12T23:49:46.110Z,10.60
2022-09-12T23:52:13.483Z,10.15
2022-09-12T23:54:40.943Z,11.32
2022-09-12T23:57:08.411Z,14.32
2022-09-12T23:59:35.899Z,10.13
